sensor_id;sensor_type;location;lat;lon;timestamp;temperature;humidity
3310;DHT22;1667;53.238;10.394;2023-04-25T00:03:34;12.10;97.70
3310;DHT22;1667;53.238;10.394;2023-04-25T00:08:34;12.10;97.80
3310;DHT22;1667;53.238;10.394;2023-04-25T00:13:33;12.00;97.60
3310;DHT22;1667;53.238;10.394;2023-04-25T00:18:31;12.00;97.80
3310;DHT22;1667;53.238;10.394;2023-04-25T00:23:30;12.00;97.90
3310;DHT22;1667;53.238;10.394;2023-04-25T00:28:30;12.00;97.90
3310;DHT22;1667;53.238;10.394;2023-04-25T00:33:28;12.00;98.00
3310;DHT22;1667;53.238;10.394;2023-04-25T00:38:27;12.00;98.20
3310;DHT22;1667;53.238;10.394;2023-04-25T00:43:26;12.00;98.40
3310;DHT22;1667;53.238;10.394;2023-04-25T00:48:26;12.00;98.20
3310;DHT22;1667;53.238;10.394;2023-04-25T00:53:27;12.00;98.20
3310;DHT22;1667;53.238;10.394;2023-04-25T00:58:26;12.00;98.50
3310;DHT22;1667;53.238;10.394;2023-04-25T01:03:26;12.00;98.40
3310;DHT22;1667;53.238;10.394;2023-04-25T01:08:26;12.00;98.20
3310;DHT22;1667;53.238;10.394;2023-04-25T01:13:24;12.00;98.80
3310;DHT22;1667;53.238;10.394;2023-04-25T01:18:23;11.90;98.60
3310;DHT22;1667;53.238;10.394;2023-04-25T01:23:23;11.80;98.60
3310;DHT22;1667;53.238;10.394;2023-04-25T01:28:22;11.60;98.80
3310;DHT22;1667;53.238;10.394;2023-04-25T01:33:21;11.50;99.20
3310;DHT22;1667;53.238;10.394;2023-04-25T01:38:20;11.60;99.00
3310;DHT22;1667;53.238;10.394;2023-04-25T01:43:20;11.50;99.20
3310;DHT22;1667;53.238;10.394;2023-04-25T01:48:18;11.60;98.90
3310;DHT22;1667;53.238;10.394;2023-04-25T01:53:17;11.50;99.00
3310;DHT22;1667;53.238;10.394;2023-04-25T01:58:16;11.50;99.00
3310;DHT22;1667;53.238;10.394;2023-04-25T02:03:36;11.50;99.00
3310;DHT22;1667;53.238;10.394;2023-04-25T02:08:40;11.40;98.80
3310;DHT22;1667;53.238;10.394;2023-04-25T02:13:41;11.40;98.80
3310;DHT22;1667;53.238;10.394;2023-04-25T02:18:55;11.30;98.90
3310;DHT22;1667;53.238;10.394;2023-04-25T02:23:55;11.40;98.80
3310;DHT22;1667;53.238;10.394;2023-04-25T02:28:54;11.40;98.70
3310;DHT22;1667;53.238;10.394;2023-04-25T02:33:53;11.30;98.80
3310;DHT22;1667;53.238;10.394;2023-04-25T02:38:52;11.30;98.80
3310;DHT22;1667;53.238;10.394;2023-04-25T02:43:51;11.30;98.80
3310;DHT22;1667;53.238;10.394;2023-04-25T02:48:49;11.20;98.70
3310;DHT22;1667;53.238;10.394;2023-04-25T02:53:48;11.20;98.80
3310;DHT22;1667;53.238;10.394;2023-04-25T02:58:48;11.20;98.70
3310;DHT22;1667;53.238;10.394;2023-04-25T03:03:47;11.10;98.70
3310;DHT22;1667;53.238;10.394;2023-04-25T03:08:46;11.00;98.60
3310;DHT22;1667;53.238;10.394;2023-04-25T03:13:45;11.00;98.50
3310;DHT22;1667;53.238;10.394;2023-04-25T03:18:45;11.00;98.50
3310;DHT22;1667;53.238;10.394;2023-04-25T03:23:43;11.00;98.30
3310;DHT22;1667;53.238;10.394;2023-04-25T03:28:42;10.90;98.10
3310;DHT22;1667;53.238;10.394;2023-04-25T03:33:42;10.90;98.20
3310;DHT22;1667;53.238;10.394;2023-04-25T03:38:42;10.80;97.90
3310;DHT22;1667;53.238;10.394;2023-04-25T03:43:43;10.80;98.10
3310;DHT22;1667;53.238;10.394;2023-04-25T03:48:43;10.70;97.90
3310;DHT22;1667;53.238;10.394;2023-04-25T03:53:50;10.70;98.00
3310;DHT22;1667;53.238;10.394;2023-04-25T03:58:49;10.70;97.90
3310;DHT22;1667;53.238;10.394;2023-04-25T04:03:50;10.90;97.90
3310;DHT22;1667;53.238;10.394;2023-04-25T04:08:50;10.70;97.70
3310;DHT22;1667;53.238;10.394;2023-04-25T04:13:49;10.60;97.40
3310;DHT22;1667;53.238;10.394;2023-04-25T04:18:48;10.50;97.40
3310;DHT22;1667;53.238;10.394;2023-04-25T04:23:46;10.50;97.40
3310;DHT22;1667;53.238;10.394;2023-04-25T04:28:47;10.50;97.20
3310;DHT22;1667;53.238;10.394;2023-04-25T04:34:00;10.40;97.00
3310;DHT22;1667;53.238;10.394;2023-04-25T04:38:59;10.30;96.90
3310;DHT22;1667;53.238;10.394;2023-04-25T04:44:08;10.20;97.00
3310;DHT22;1667;53.238;10.394;2023-04-25T04:49:21;10.20;96.80
3310;DHT22;1667;53.238;10.394;2023-04-25T04:54:48;10.20;96.90
3310;DHT22;1667;53.238;10.394;2023-04-25T05:00:00;10.10;96.90
3310;DHT22;1667;53.238;10.394;2023-04-25T05:05:25;10.10;96.90
3310;DHT22;1667;53.238;10.394;2023-04-25T05:10:40;10.10;96.90
3310;DHT22;1667;53.238;10.394;2023-04-25T05:15:57;10.10;96.70
3310;DHT22;1667;53.238;10.394;2023-04-25T05:21:13;10.00;96.60
3310;DHT22;1667;53.238;10.394;2023-04-25T05:26:35;10.00;96.70
3310;DHT22;1667;53.238;10.394;2023-04-25T05:31:52;10.00;96.80
3310;DHT22;1667;53.238;10.394;2023-04-25T05:36:51;10.10;97.30
3310;DHT22;1667;53.238;10.394;2023-04-25T05:41:50;10.10;97.00
3310;DHT22;1667;53.238;10.394;2023-04-25T05:47:13;10.20;97.00
3310;DHT22;1667;53.238;10.394;2023-04-25T05:52:27;10.20;96.70
3310;DHT22;1667;53.238;10.394;2023-04-25T05:57:48;10.30;96.80
3310;DHT22;1667;53.238;10.394;2023-04-25T06:02:49;10.30;96.60
3310;DHT22;1667;53.238;10.394;2023-04-25T06:07:48;10.40;96.80
3310;DHT22;1667;53.238;10.394;2023-04-25T06:12:47;10.40;96.20
3310;DHT22;1667;53.238;10.394;2023-04-25T06:17:48;10.40;96.10
3310;DHT22;1667;53.238;10.394;2023-04-25T06:22:47;10.40;96.10
3310;DHT22;1667;53.238;10.394;2023-04-25T06:27:45;10.40;95.90
3310;DHT22;1667;53.238;10.394;2023-04-25T06:32:44;10.40;96.00
3310;DHT22;1667;53.238;10.394;2023-04-25T06:37:44;10.50;96.10
3310;DHT22;1667;53.238;10.394;2023-04-25T06:42:43;10.50;96.00
3310;DHT22;1667;53.238;10.394;2023-04-25T06:47:59;10.60;96.10
3310;DHT22;1667;53.238;10.394;2023-04-25T06:53:00;10.70;96.20
3310;DHT22;1667;53.238;10.394;2023-04-25T06:57:59;10.80;96.00
3310;DHT22;1667;53.238;10.394;2023-04-25T07:03:22;10.80;95.60
3310;DHT22;1667;53.238;10.394;2023-04-25T07:08:28;10.90;95.70
3310;DHT22;1667;53.238;10.394;2023-04-25T07:13:28;10.90;95.30
3310;DHT22;1667;53.238;10.394;2023-04-25T07:25:17;11.00;94.80
3310;DHT22;1667;53.238;10.394;2023-04-25T07:30:16;11.00;95.20
3310;DHT22;1667;53.238;10.394;2023-04-25T07:35:15;11.10;95.00
3310;DHT22;1667;53.238;10.394;2023-04-25T07:40:14;11.10;94.90
3310;DHT22;1667;53.238;10.394;2023-04-25T07:45:19;11.10;94.70
3310;DHT22;1667;53.238;10.394;2023-04-25T07:50:18;11.20;94.60
3310;DHT22;1667;53.238;10.394;2023-04-25T07:55:32;11.30;94.80
3310;DHT22;1667;53.238;10.394;2023-04-25T08:00:38;11.40;94.20
3310;DHT22;1667;53.238;10.394;2023-04-25T08:06:39;11.40;94.00
3310;DHT22;1667;53.238;10.394;2023-04-25T08:11:46;11.50;94.00
3310;DHT22;1667;53.238;10.394;2023-04-25T08:16:48;11.50;94.10
3310;DHT22;1667;53.238;10.394;2023-04-25T08:21:48;11.60;94.00
3310;DHT22;1667;53.238;10.394;2023-04-25T08:26:55;11.60;93.80
3310;DHT22;1667;53.238;10.394;2023-04-25T08:31:57;11.70;93.60
3310;DHT22;1667;53.238;10.394;2023-04-25T08:36:56;11.80;93.30
3310;DHT22;1667;53.238;10.394;2023-04-25T08:42:17;11.90;93.50
3310;DHT22;1667;53.238;10.394;2023-04-25T08:47:18;12.00;93.20
3310;DHT22;1667;53.238;10.394;2023-04-25T08:52:28;12.10;93.30
3310;DHT22;1667;53.238;10.394;2023-04-25T08:57:29;12.20;92.90
3310;DHT22;1667;53.238;10.394;2023-04-25T09:02:30;12.30;93.20
3310;DHT22;1667;53.238;10.394;2023-04-25T09:07:31;12.40;92.90
3310;DHT22;1667;53.238;10.394;2023-04-25T09:12:30;12.50;92.40
3310;DHT22;1667;53.238;10.394;2023-04-25T09:17:30;12.50;92.10
3310;DHT22;1667;53.238;10.394;2023-04-25T09:22:29;12.70;91.50
3310;DHT22;1667;53.238;10.394;2023-04-25T09:27:28;12.70;90.30
3310;DHT22;1667;53.238;10.394;2023-04-25T09:32:43;12.60;90.60
3310;DHT22;1667;53.238;10.394;2023-04-25T09:37:42;12.60;90.90
3310;DHT22;1667;53.238;10.394;2023-04-25T09:43:00;12.60;91.00
3310;DHT22;1667;53.238;10.394;2023-04-25T09:48:05;12.70;91.80
3310;DHT22;1667;53.238;10.394;2023-04-25T09:53:12;12.70;90.60
3310;DHT22;1667;53.238;10.394;2023-04-25T09:58:34;12.80;90.20
3310;DHT22;1667;53.238;10.394;2023-04-25T10:03:36;12.90;90.80
3310;DHT22;1667;53.238;10.394;2023-04-25T10:09:07;13.00;91.30
3310;DHT22;1667;53.238;10.394;2023-04-25T10:14:06;13.10;91.00
3310;DHT22;1667;53.238;10.394;2023-04-25T10:19:07;13.10;91.60
3310;DHT22;1667;53.238;10.394;2023-04-25T10:24:06;13.00;92.20
3310;DHT22;1667;53.238;10.394;2023-04-25T10:29:05;12.90;92.30
3310;DHT22;1667;53.238;10.394;2023-04-25T10:34:04;12.70;92.90
3310;DHT22;1667;53.238;10.394;2023-04-25T10:39:05;12.70;92.70
3310;DHT22;1667;53.238;10.394;2023-04-25T10:44:06;12.60;92.60
3310;DHT22;1667;53.238;10.394;2023-04-25T10:49:04;12.50;92.10
3310;DHT22;1667;53.238;10.394;2023-04-25T10:59:58;12.60;92.00
3310;DHT22;1667;53.238;10.394;2023-04-25T11:04:57;12.60;91.90
3310;DHT22;1667;53.238;10.394;2023-04-25T11:09:56;12.70;91.40
3310;DHT22;1667;53.238;10.394;2023-04-25T11:15:00;12.90;91.00
3310;DHT22;1667;53.238;10.394;2023-04-25T11:20:00;13.10;90.80
3310;DHT22;1667;53.238;10.394;2023-04-25T11:25:07;13.40;90.90
3310;DHT22;1667;53.238;10.394;2023-04-25T11:30:15;13.70;90.40
3310;DHT22;1667;53.238;10.394;2023-04-25T11:35:14;14.00;91.10
3310;DHT22;1667;53.238;10.394;2023-04-25T11:40:26;14.10;89.30
3310;DHT22;1667;53.238;10.394;2023-04-25T11:45:26;14.10;91.20
3310;DHT22;1667;53.238;10.394;2023-04-25T11:50:28;13.90;92.30
3310;DHT22;1667;53.238;10.394;2023-04-25T11:55:30;13.60;92.60
3310;DHT22;1667;53.238;10.394;2023-04-25T12:00:30;13.40;92.80
3310;DHT22;1667;53.238;10.394;2023-04-25T12:05:30;13.30;92.20
3310;DHT22;1667;53.238;10.394;2023-04-25T12:10:31;13.10;91.80
3310;DHT22;1667;53.238;10.394;2023-04-25T12:15:33;13.00;91.20
3310;DHT22;1667;53.238;10.394;2023-04-25T12:20:32;13.00;91.30
3310;DHT22;1667;53.238;10.394;2023-04-25T12:25:34;12.90;90.90
3310;DHT22;1667;53.238;10.394;2023-04-25T12:30:52;13.00;91.20
3310;DHT22;1667;53.238;10.394;2023-04-25T12:35:50;13.10;90.70
3310;DHT22;1667;53.238;10.394;2023-04-25T12:40:49;13.30;90.60
3310;DHT22;1667;53.238;10.394;2023-04-25T12:45:49;13.70;90.20
3310;DHT22;1667;53.238;10.394;2023-04-25T12:50:49;14.00;88.50
3310;DHT22;1667;53.238;10.394;2023-04-25T12:55:49;14.20;87.90
3310;DHT22;1667;53.238;10.394;2023-04-25T13:00:49;14.20;85.00
3310;DHT22;1667;53.238;10.394;2023-04-25T13:05:47;14.00;88.50
3310;DHT22;1667;53.238;10.394;2023-04-25T13:10:47;13.90;89.70
3310;DHT22;1667;53.238;10.394;2023-04-25T13:15:46;13.80;90.00
3310;DHT22;1667;53.238;10.394;2023-04-25T13:20:45;13.90;90.20
3310;DHT22;1667;53.238;10.394;2023-04-25T13:25:44;14.00;89.30
3310;DHT22;1667;53.238;10.394;2023-04-25T13:30:43;13.90;88.10
3310;DHT22;1667;53.238;10.394;2023-04-25T13:35:42;13.80;86.40
3310;DHT22;1667;53.238;10.394;2023-04-25T13:40:45;13.70;86.40
3310;DHT22;1667;53.238;10.394;2023-04-25T13:45:43;13.70;85.00
3310;DHT22;1667;53.238;10.394;2023-04-25T13:50:42;13.70;83.70
3310;DHT22;1667;53.238;10.394;2023-04-25T13:55:40;13.70;83.40
3310;DHT22;1667;53.238;10.394;2023-04-25T14:00:40;13.80;83.90
3310;DHT22;1667;53.238;10.394;2023-04-25T14:05:40;13.90;83.70
3310;DHT22;1667;53.238;10.394;2023-04-25T14:10:39;14.10;84.40
3310;DHT22;1667;53.238;10.394;2023-04-25T14:15:37;14.30;85.40
3310;DHT22;1667;53.238;10.394;2023-04-25T14:20:37;14.60;85.20
3310;DHT22;1667;53.238;10.394;2023-04-25T14:25:36;14.70;85.40
3310;DHT22;1667;53.238;10.394;2023-04-25T14:30:35;14.70;85.20
3310;DHT22;1667;53.238;10.394;2023-04-25T14:35:33;14.50;84.40
3310;DHT22;1667;53.238;10.394;2023-04-25T14:40:34;14.40;86.30
3310;DHT22;1667;53.238;10.394;2023-04-25T14:45:33;14.30;87.90
3310;DHT22;1667;53.238;10.394;2023-04-25T14:50:32;14.30;88.80
3310;DHT22;1667;53.238;10.394;2023-04-25T14:55:31;14.40;88.00
3310;DHT22;1667;53.238;10.394;2023-04-25T15:00:30;14.60;87.10
3310;DHT22;1667;53.238;10.394;2023-04-25T15:05:30;14.50;83.40
3310;DHT22;1667;53.238;10.394;2023-04-25T15:10:29;14.30;84.60
3310;DHT22;1667;53.238;10.394;2023-04-25T15:15:27;14.30;84.10
3310;DHT22;1667;53.238;10.394;2023-04-25T15:20:27;14.10;84.20
3310;DHT22;1667;53.238;10.394;2023-04-25T15:25:26;14.10;84.80
3310;DHT22;1667;53.238;10.394;2023-04-25T15:30:25;14.20;85.50
3310;DHT22;1667;53.238;10.394;2023-04-25T15:35:24;14.30;85.10
3310;DHT22;1667;53.238;10.394;2023-04-25T15:40:24;14.20;83.20
3310;DHT22;1667;53.238;10.394;2023-04-25T15:45:23;14.20;85.20
3310;DHT22;1667;53.238;10.394;2023-04-25T15:50:23;13.80;84.20
3310;DHT22;1667;53.238;10.394;2023-04-25T15:55:23;13.80;85.30
3310;DHT22;1667;53.238;10.394;2023-04-25T16:00:23;13.90;85.10
3310;DHT22;1667;53.238;10.394;2023-04-25T16:05:22;13.90;84.10
3310;DHT22;1667;53.238;10.394;2023-04-25T16:10:20;13.90;82.50
3310;DHT22;1667;53.238;10.394;2023-04-25T16:15:20;13.90;83.90
3310;DHT22;1667;53.238;10.394;2023-04-25T16:20:18;13.80;82.60
3310;DHT22;1667;53.238;10.394;2023-04-25T16:25:16;13.90;82.70
3310;DHT22;1667;53.238;10.394;2023-04-25T16:30:15;13.90;81.50
3310;DHT22;1667;53.238;10.394;2023-04-25T16:35:15;13.90;81.00
3310;DHT22;1667;53.238;10.394;2023-04-25T16:40:14;13.90;80.60
3310;DHT22;1667;53.238;10.394;2023-04-25T16:45:12;13.80;79.70
3310;DHT22;1667;53.238;10.394;2023-04-25T16:50:15;13.80;81.30
3310;DHT22;1667;53.238;10.394;2023-04-25T16:55:14;13.60;83.80
3310;DHT22;1667;53.238;10.394;2023-04-25T17:00:13;13.50;84.70
3310;DHT22;1667;53.238;10.394;2023-04-25T17:05:12;13.40;85.10
3310;DHT22;1667;53.238;10.394;2023-04-25T17:10:12;13.30;84.60
3310;DHT22;1667;53.238;10.394;2023-04-25T17:15:11;13.20;83.50
3310;DHT22;1667;53.238;10.394;2023-04-25T17:20:10;13.20;82.90
3310;DHT22;1667;53.238;10.394;2023-04-25T17:25:09;13.20;84.00
3310;DHT22;1667;53.238;10.394;2023-04-25T17:30:10;13.10;83.40
3310;DHT22;1667;53.238;10.394;2023-04-25T17:35:08;13.00;83.60
3310;DHT22;1667;53.238;10.394;2023-04-25T17:40:08;12.90;82.90
3310;DHT22;1667;53.238;10.394;2023-04-25T17:45:10;12.70;83.00
3310;DHT22;1667;53.238;10.394;2023-04-25T17:50:09;12.70;83.30
3310;DHT22;1667;53.238;10.394;2023-04-25T17:55:09;12.60;83.80
3310;DHT22;1667;53.238;10.394;2023-04-25T18:00:10;12.60;85.00
3310;DHT22;1667;53.238;10.394;2023-04-25T18:05:11;12.70;86.10
3310;DHT22;1667;53.238;10.394;2023-04-25T18:10:13;12.70;85.70
3310;DHT22;1667;53.238;10.394;2023-04-25T18:15:13;12.60;85.20
3310;DHT22;1667;53.238;10.394;2023-04-25T18:20:13;12.60;85.80
3310;DHT22;1667;53.238;10.394;2023-04-25T18:25:13;12.60;85.90
3310;DHT22;1667;53.238;10.394;2023-04-25T18:30:13;12.40;85.60
3310;DHT22;1667;53.238;10.394;2023-04-25T18:35:12;12.30;86.10
3310;DHT22;1667;53.238;10.394;2023-04-25T18:40:10;12.20;86.60
3310;DHT22;1667;53.238;10.394;2023-04-25T18:45:10;12.20;86.60
3310;DHT22;1667;53.238;10.394;2023-04-25T18:50:10;12.10;87.00
3310;DHT22;1667;53.238;10.394;2023-04-25T18:55:09;12.10;88.20
3310;DHT22;1667;53.238;10.394;2023-04-25T19:00:08;12.00;89.90
3310;DHT22;1667;53.238;10.394;2023-04-25T19:05:09;12.00;90.10
3310;DHT22;1667;53.238;10.394;2023-04-25T19:10:08;12.00;90.20
3310;DHT22;1667;53.238;10.394;2023-04-25T19:15:07;12.00;90.20
3310;DHT22;1667;53.238;10.394;2023-04-25T19:20:08;11.90;90.10
3310;DHT22;1667;53.238;10.394;2023-04-25T19:25:08;11.70;90.20
3310;DHT22;1667;53.238;10.394;2023-04-25T19:30:08;11.60;90.40
3310;DHT22;1667;53.238;10.394;2023-04-25T19:35:08;11.50;90.20
3310;DHT22;1667;53.238;10.394;2023-04-25T19:40:10;11.30;90.50
3310;DHT22;1667;53.238;10.394;2023-04-25T19:45:10;11.30;90.60
3310;DHT22;1667;53.238;10.394;2023-04-25T19:50:09;11.20;90.50
3310;DHT22;1667;53.238;10.394;2023-04-25T19:55:09;11.20;90.90
3310;DHT22;1667;53.238;10.394;2023-04-25T20:00:13;11.00;90.70
3310;DHT22;1667;53.238;10.394;2023-04-25T20:05:16;10.80;90.60
3310;DHT22;1667;53.238;10.394;2023-04-25T20:10:16;10.70;91.40
3310;DHT22;1667;53.238;10.394;2023-04-25T20:15:16;10.60;91.40
3310;DHT22;1667;53.238;10.394;2023-04-25T20:20:15;10.70;91.70
3310;DHT22;1667;53.238;10.394;2023-04-25T20:25:16;10.70;91.70
3310;DHT22;1667;53.238;10.394;2023-04-25T20:30:33;10.70;91.60
3310;DHT22;1667;53.238;10.394;2023-04-25T20:35:31;10.60;91.60
3310;DHT22;1667;53.238;10.394;2023-04-25T20:40:31;10.60;91.40
3310;DHT22;1667;53.238;10.394;2023-04-25T20:45:30;10.50;91.80
3310;DHT22;1667;53.238;10.394;2023-04-25T20:50:31;10.30;91.90
3310;DHT22;1667;53.238;10.394;2023-04-25T20:55:31;10.30;91.80
3310;DHT22;1667;53.238;10.394;2023-04-25T21:00:29;10.20;91.90
3310;DHT22;1667;53.238;10.394;2023-04-25T21:05:28;10.10;91.90
3310;DHT22;1667;53.238;10.394;2023-04-25T21:10:26;10.10;91.90
3310;DHT22;1667;53.238;10.394;2023-04-25T21:15:26;10.00;92.40
3310;DHT22;1667;53.238;10.394;2023-04-25T21:20:26;9.90;92.50
3310;DHT22;1667;53.238;10.394;2023-04-25T21:25:24;9.80;92.80
3310;DHT22;1667;53.238;10.394;2023-04-25T21:30:29;9.70;92.40
3310;DHT22;1667;53.238;10.394;2023-04-25T21:35:28;9.60;92.80
3310;DHT22;1667;53.238;10.394;2023-04-25T21:40:27;9.60;93.10
3310;DHT22;1667;53.238;10.394;2023-04-25T21:45:26;9.70;93.00
3310;DHT22;1667;53.238;10.394;2023-04-25T21:50:27;9.50;93.20
3310;DHT22;1667;53.238;10.394;2023-04-25T21:55:26;9.50;93.50
3310;DHT22;1667;53.238;10.394;2023-04-25T22:00:24;9.50;93.50
3310;DHT22;1667;53.238;10.394;2023-04-25T22:05:24;9.50;93.20
3310;DHT22;1667;53.238;10.394;2023-04-25T22:10:25;9.50;93.40
3310;DHT22;1667;53.238;10.394;2023-04-25T22:15:23;9.80;93.60
3310;DHT22;1667;53.238;10.394;2023-04-25T22:20:22;9.50;93.50
3310;DHT22;1667;53.238;10.394;2023-04-25T22:25:24;9.40;93.30
3310;DHT22;1667;53.238;10.394;2023-04-25T22:30:22;9.40;93.20
3310;DHT22;1667;53.238;10.394;2023-04-25T22:35:21;9.50;93.50
3310;DHT22;1667;53.238;10.394;2023-04-25T22:40:20;9.30;93.40
3310;DHT22;1667;53.238;10.394;2023-04-25T22:45:19;9.30;93.60
3310;DHT22;1667;53.238;10.394;2023-04-25T22:50:18;9.30;93.70
3310;DHT22;1667;53.238;10.394;2023-04-25T22:55:17;9.20;93.50
3310;DHT22;1667;53.238;10.394;2023-04-25T23:00:16;9.10;93.60
3310;DHT22;1667;53.238;10.394;2023-04-25T23:05:17;9.10;93.70
3310;DHT22;1667;53.238;10.394;2023-04-25T23:10:16;9.10;93.80
3310;DHT22;1667;53.238;10.394;2023-04-25T23:15:15;9.00;93.70
3310;DHT22;1667;53.238;10.394;2023-04-25T23:20:14;9.00;93.90
3310;DHT22;1667;53.238;10.394;2023-04-25T23:25:14;9.00;94.00
3310;DHT22;1667;53.238;10.394;2023-04-25T23:30:13;9.00;94.00
3310;DHT22;1667;53.238;10.394;2023-04-25T23:35:12;9.00;94.00
3310;DHT22;1667;53.238;10.394;2023-04-25T23:40:11;9.10;94.20
3310;DHT22;1667;53.238;10.394;2023-04-25T23:45:11;8.90;94.10
3310;DHT22;1667;53.238;10.394;2023-04-25T23:50:11;8.70;94.00
3310;DHT22;1667;53.238;10.394;2023-04-25T23:55:10;8.70;94.10
